Time;durP1;ratioP1;P1;durP2;ratioP2;P2;SDS_P1;SDS_P2;PMS_P1;PMS_P2;Temp;Humidity;BMP_temperature;BMP_pressure;BME280_temperature;BME280_humidity;BME280_pressure;Samples;Min_cycle;Max_cycle;Signal;HPM_P1;HPM_P2
2023/10/04 00:01:42;;;;;;;29.73;12.13;;;;;;;16.83;63.11;101482.69;5053399;28;20025;-76
2023/10/04 00:04:07;;;;;;;31.77;11.18;;;;;;;16.92;63.00;101485.53;5053319;28;20017;-76
2023/10/04 00:06:33;;;;;;;29.67;11.20;;;;;;;16.98;62.70;101477.66;5053464;28;20035;-76
2023/10/04 00:08:59;;;;;;;30.15;10.88;;;;;;;16.91;62.81;101483.84;5057584;28;20025;-76
2023/10/04 00:11:26;;;;;;;29.77;11.82;;;;;;;16.96;62.88;101476.09;5060144;28;20044;-76
2023/10/04 00:13:52;;;;;;;30.65;13.32;;;;;;;16.92;62.99;101480.09;5055946;28;20029;-77
2023/10/04 00:16:18;;;;;;;28.33;11.98;;;;;;;16.95;62.88;101472.53;5053699;28;20064;-77
2023/10/04 00:18:43;;;;;;;33.70;12.07;;;;;;;16.70;62.77;101435.06;5018483;28;20059;-77
2023/10/04 00:21:13;;;;;;;33.45;11.75;;;;;;;16.75;62.60;101433.66;5061514;28;20021;-77
2023/10/04 00:23:39;;;;;;;33.92;11.93;;;;;;;16.84;62.56;101462.69;5077734;28;20046;-77
2023/10/04 00:26:07;;;;;;;30.48;10.95;;;;;;;16.75;62.75;101462.69;5076466;28;20025;-76
2023/10/04 00:28:33;;;;;;;28.13;11.43;;;;;;;16.72;63.12;101466.56;5064565;28;20053;-78
2023/10/04 00:30:59;;;;;;;33.97;11.82;;;;;;;16.69;63.22;101468.69;5065787;28;20029;-77
2023/10/04 00:33:26;;;;;;;32.80;13.73;;;;;;;16.63;63.53;101447.53;5056314;28;20115;-76
2023/10/04 00:35:51;;;;;;;31.83;12.95;;;;;;;16.43;63.55;101421.34;5064689;28;20029;-76
2023/10/04 00:38:19;;;;;;;39.92;14.20;;;;;;;16.63;63.61;101458.41;5069435;28;20040;-77
2023/10/04 00:40:47;;;;;;;40.55;14.20;;;;;;;16.47;63.69;101436.34;5064647;28;20025;-77
2023/10/04 00:43:14;;;;;;;39.33;12.82;;;;;;;16.64;63.92;101454.66;5068969;28;20120;-77
2023/10/04 00:45:44;;;;;;;38.10;13.77;;;;;;;16.54;64.04;101459.25;5066582;28;20048;-77
2023/10/04 00:48:15;;;;;;;32.85;13.65;;;;;;;16.52;64.03;101461.22;5057399;28;20044;-77
2023/10/04 00:50:41;;;;;;;27.30;12.27;;;;;;;16.51;63.91;101452.22;5052992;28;20032;-77
2023/10/04 00:53:07;;;;;;;34.08;13.23;;;;;;;16.51;63.95;101454.09;5052191;28;20028;-77
2023/10/04 00:55:44;;;;;;;70.38;15.68;;;;;;;16.51;63.86;101454.09;5051521;28;20032;-78
2023/10/04 00:58:15;;;;;;;34.05;13.75;;;;;;;16.59;63.62;101451.53;5051848;28;20082;-77
2023/10/04 01:00:43;;;;;;;46.85;14.00;;;;;;;16.51;64.12;101451.38;5051608;28;20032;-77
2023/10/04 01:03:09;;;;;;;40.03;13.45;;;;;;;16.50;64.04;101457.78;5050380;28;20551;-77
2023/10/04 01:05:39;;;;;;;35.75;11.82;;;;;;;16.49;63.79;101446.06;5051387;28;20129;-78
2023/10/04 01:08:06;;;;;;;41.47;13.02;;;;;;;16.49;63.88;101454.22;5051096;28;20033;-77
2023/10/04 01:10:34;;;;;;;35.80;12.25;;;;;;;16.41;63.85;101436.94;5051397;28;20094;-77
2023/10/04 01:13:05;;;;;;;44.95;13.88;;;;;;;16.40;63.93;101444.22;5033365;28;20037;-77
2023/10/04 01:15:32;;;;;;;34.45;12.15;;;;;;;16.44;64.26;101444.78;5051055;28;20025;-77
2023/10/04 01:18:01;;;;;;;36.83;13.05;;;;;;;16.14;64.52;101405.06;5051455;28;20089;-78
2023/10/04 01:20:28;;;;;;;25.48;11.18;;;;;;;16.18;64.08;101407.34;5051015;28;20037;-76
2023/10/04 01:23:01;;;;;;;27.55;12.63;;;;;;;16.39;64.29;101438.94;5051323;28;20029;-77
2023/10/04 01:25:31;;;;;;;31.98;11.68;;;;;;;16.37;64.10;101440.91;5051308;28;20074;-78
2023/10/04 01:27:59;;;;;;;30.80;11.93;;;;;;;16.16;64.23;101409.34;5050958;28;20060;-77
2023/10/04 01:30:25;;;;;;;39.13;13.85;;;;;;;16.16;64.23;101417.47;5051103;28;20021;-78
2023/10/04 01:32:50;;;;;;;32.65;14.23;;;;;;;16.16;64.65;101444.63;5051075;28;20382;-77
2023/10/04 01:35:23;;;;;;;39.17;12.70;;;;;;;16.10;64.99;101439.75;5015671;28;20037;-76
2023/10/04 01:37:50;;;;;;;44.38;14.05;;;;;;;16.07;65.12;101445.47;5051315;28;20485;-78
2023/10/04 01:40:18;;;;;;;39.55;15.07;;;;;;;16.04;65.60;101448.47;5050916;28;20036;-78
2023/10/04 01:42:45;;;;;;;45.05;14.00;;;;;;;16.06;65.47;101443.75;5051098;28;20103;-76
2023/10/04 01:45:11;;;;;;;38.45;13.38;;;;;;;16.07;65.68;101440.03;5051318;28;20025;-76
2023/10/04 01:47:38;;;;;;;41.35;13.68;;;;;;;16.14;65.64;101449.34;5050304;28;20020;-75
2023/10/04 01:50:06;;;;;;;53.47;14.70;;;;;;;16.14;65.45;101440.34;5050950;28;20125;-77
2023/10/04 01:52:31;;;;;;;40.67;15.43;;;;;;;16.01;65.16;101399.91;5050485;28;20413;-77
2023/10/04 01:54:58;;;;;;;37.22;14.02;;;;;;;15.98;64.86;101392.03;5050619;28;20025;-75
2023/10/04 01:57:23;;;;;;;31.67;13.70;;;;;;;16.23;64.94;101434.06;5050241;28;20499;-77
2023/10/04 01:59:49;;;;;;;35.83;14.75;;;;;;;16.18;65.24;101426.34;5050765;28;20075;-78
2023/10/04 02:02:14;;;;;;;52.33;14.63;;;;;;;16.18;64.91;101429.03;5050310;28;20405;-76
2023/10/04 02:04:40;;;;;;;33.05;13.38;;;;;;;16.14;65.39;101424.91;5050202;28;20028;-76
2023/10/04 02:07:05;;;;;;;46.42;15.10;;;;;;;16.00;65.12;101394.59;5050153;28;20024;-78
2023/10/04 02:09:31;;;;;;;33.15;15.15;;;;;;;16.11;64.97;101413.47;5050163;28;20025;-77
2023/10/04 02:11:56;;;;;;;43.63;14.40;;;;;;;15.96;64.94;101377.75;5050193;28;20029;-76
2023/10/04 02:14:21;;;;;;;42.22;14.00;;;;;;;16.06;65.40;101422.03;5049895;28;20372;-76
2023/10/04 02:16:49;;;;;;;37.85;12.60;;;;;;;15.67;65.33;101344.31;5050225;28;20119;-77
2023/10/04 02:19:14;;;;;;;29.92;13.93;;;;;;;15.91;65.52;101409.88;5050068;28;20032;-76
2023/10/04 02:21:40;;;;;;;35.92;12.77;;;;;;;15.91;65.94;101412.59;5050186;28;20033;-78
2023/10/04 02:24:06;;;;;;;30.83;12.65;;;;;;;15.90;66.08;101416.28;5049874;28;20485;-77
2023/10/04 02:26:35;;;;;;;30.48;13.50;;;;;;;15.84;65.65;101405.16;5049899;28;20051;-79
2023/10/04 02:29:01;;;;;;;46.72;13.00;;;;;;;15.84;65.88;101416.00;5050077;28;20028;-78
2023/10/04 02:31:29;;;;;;;34.63;13.07;;;;;;;15.77;66.54;101418.41;5049943;28;20055;-77
2023/10/04 02:33:54;;;;;;;45.60;13.02;;;;;;;15.71;66.45;101405.41;5050102;28;20070;-78
2023/10/04 02:36:20;;;;;;;28.67;12.13;;;;;;;15.76;66.64;101416.69;5050006;28;20033;-76
2023/10/04 02:38:46;;;;;;;60.83;14.63;;;;;;;15.55;66.77;101369.81;5049837;28;20108;-77
2023/10/04 02:41:11;;;;;;;30.88;14.68;;;;;;;15.83;66.67;101412.44;5049722;28;20029;-76
2023/10/04 02:43:37;;;;;;;32.50;12.85;;;;;;;15.64;66.70;101371.69;5032147;28;20055;-75
2023/10/04 02:46:03;;;;;;;39.08;12.32;;;;;;;15.87;66.66;101411.13;5050029;28;20074;-76
2023/10/04 02:48:34;;;;;;;35.50;12.30;;;;;;;15.86;66.39;101401.31;5049830;28;20036;-75
2023/10/04 02:51:00;;;;;;;33.75;13.52;;;;;;;15.89;66.47;101402.88;5049532;28;20032;-75
2023/10/04 02:53:27;;;;;;;43.85;13.93;;;;;;;15.67;66.32;101371.41;5050073;28;20032;-77
2023/10/04 02:55:57;;;;;;;47.20;13.48;;;;;;;15.92;66.12;101408.88;5050019;28;20104;-76
2023/10/04 02:58:24;;;;;;;47.45;14.90;;;;;;;15.88;66.33;101402.00;5050064;28;20052;-78
2023/10/04 03:00:50;;;;;;;43.78;13.23;;;;;;;15.85;66.59;101405.00;5049747;28;20548;-77
2023/10/04 03:03:19;;;;;;;35.78;13.30;;;;;;;15.89;66.30;101403.75;5049983;28;20043;-77
2023/10/04 03:05:49;;;;;;;52.28;13.60;;;;;;;15.85;66.60;101399.56;4998726;28;20041;-77
2023/10/04 03:08:17;;;;;;;36.03;12.70;;;;;;;15.70;66.57;101371.13;5049670;28;20048;-78
2023/10/04 03:10:45;;;;;;;40.47;13.32;;;;;;;15.86;66.43;101395.88;5015338;28;20132;-77
2023/10/04 03:13:16;;;;;;;36.70;13.82;;;;;;;15.63;66.39;101364.56;5049518;28;20493;-78
2023/10/04 03:15:46;;;;;;;40.22;12.60;;;;;;;15.85;66.55;101402.28;5049300;28;20044;-77
2023/10/04 03:18:17;;;;;;;36.53;14.80;;;;;;;15.83;66.28;101390.72;5049231;28;20061;-77
2023/10/04 03:20:54;;;;;;;37.35;14.55;;;;;;;15.79;66.16;101397.44;5049510;28;20021;-76
2023/10/04 03:23:21;;;;;;;47.08;14.60;;;;;;;15.17;66.22;101308.19;5049450;28;20417;-77
2023/10/04 03:25:47;;;;;;;43.38;14.15;;;;;;;15.66;66.38;101385.97;5050698;28;20029;-77
2023/10/04 03:28:13;;;;;;;36.80;13.93;;;;;;;15.72;66.80;101402.53;5053183;28;20111;-77
2023/10/04 03:30:39;;;;;;;48.30;14.85;;;;;;;15.73;66.56;101392.56;5053278;28;20112;-76
2023/10/04 03:33:04;;;;;;;66.07;18.20;;;;;;;15.71;66.56;101405.41;5018121;28;20040;-77
2023/10/04 03:35:30;;;;;;;40.70;15.98;;;;;;;15.76;66.83;101404.00;5053143;28;20028;-78
2023/10/04 03:37:58;;;;;;;37.95;14.77;;;;;;;15.68;66.75;101390.28;5053244;28;20037;-77
2023/10/04 03:40:38;;;;;;;48.75;14.93;;;;;;;15.42;66.69;101363.75;5001385;28;20762;-77
2023/10/04 03:43:06;;;;;;;51.88;14.82;;;;;;;15.48;67.11;101377.66;5052974;28;20049;-76
2023/10/04 03:45:33;;;;;;;47.42;15.18;;;;;;;15.54;67.41;101393.38;5053058;28;20018;-77
2023/10/04 03:47:59;;;;;;;94.18;20.48;;;;;;;15.59;67.18;101404.69;5053007;28;20068;-78
2023/10/04 03:50:25;;;;;;;47.90;13.40;;;;;;;15.66;66.97;101399.53;5053226;28;20068;-78
2023/10/04 03:52:57;;;;;;;59.00;15.40;;;;;;;15.54;67.08;101404.22;5053714;28;20036;-77
2023/10/04 03:55:23;;;;;;;41.65;14.70;;;;;;;15.57;67.34;101405.78;5053880;28;20021;-78
2023/10/04 03:57:50;;;;;;;74.63;18.00;;;;;;;15.34;67.34;101366.31;5054021;28;20041;-78
2023/10/04 04:00:17;;;;;;;76.30;16.98;;;;;;;15.56;67.47;101406.81;5053727;28;20497;-76
2023/10/04 04:02:43;;;;;;;64.32;19.30;;;;;;;15.49;67.30;101411.91;5052662;28;20029;-78
2023/10/04 04:05:14;;;;;;;102.63;19.75;;;;;;;15.44;67.09;101405.16;5053381;28;20021;-78
2023/10/04 04:07:43;;;;;;;59.63;16.65;;;;;;;15.38;67.03;101413.84;5052703;28;20497;-79
2023/10/04 04:10:14;;;;;;;74.93;15.07;;;;;;;15.37;67.33;101412.97;5052344;28;20036;-78
2023/10/04 04:12:40;;;;;;;46.90;15.68;;;;;;;15.20;67.16;101368.38;5052324;28;20036;-78
2023/10/04 04:15:12;;;;;;;103.38;17.27;;;;;;;15.45;66.80;101410.44;5052613;28;20083;-78
2023/10/04 04:17:41;;;;;;;;;;;;;;;15.47;66.61;101413.00;5052958;28;20067;-76
2023/10/04 04:20:14;;;;;;;63.58;16.35;;;;;;;15.31;66.08;101381.00;5052336;28;20351;-77
2023/10/04 04:22:43;;;;;;;96.07;18.08;;;;;;;15.44;66.29;101408.69;5051784;28;20029;-76
2023/10/04 04:25:14;;;;;;;85.80;16.08;;;;;;;15.41;66.25;101408.13;5052155;28;20025;-77
2023/10/04 04:27:43;;;;;;;97.82;17.60;;;;;;;15.44;66.21;101407.88;5051974;28;20087;-77
2023/10/04 04:30:16;;;;;;;75.25;15.60;;;;;;;15.43;66.13;101400.72;5052503;28;20044;-76
2023/10/04 04:32:58;;;;;;;71.63;16.80;;;;;;;15.50;66.27;101410.06;5016541;28;20040;-77
2023/10/04 04:40:36;;;;;;;98.00;30.05;;;;;;;15.60;65.99;101408.22;5051785;28;20025;-76
2023/10/04 04:45:56;;;;;;;133.70;37.72;;;;;;;15.74;66.24;101422.28;4970326;28;20462;-77
2023/10/04 04:48:25;;;;;;;111.07;32.63;;;;;;;15.59;66.11;101401.09;4970139;28;20067;-78
2023/10/04 04:50:54;;;;;;;104.82;32.40;;;;;;;15.70;66.33;101419.97;4970673;28;20054;-77
2023/10/04 04:53:22;;;;;;;89.13;28.67;;;;;;;15.50;67.13;101423.63;4970617;28;20057;-77
2023/10/04 04:55:51;;;;;;;91.15;29.35;;;;;;;15.59;67.65;101428.22;4970944;28;20511;-77
2023/10/04 04:58:20;;;;;;;190.77;37.03;;;;;;;15.72;67.23;101434.22;4970737;28;20039;-78
2023/10/04 05:00:50;;;;;;;131.60;36.15;;;;;;;15.85;66.98;101429.41;4971406;28;20050;-78
2023/10/04 05:03:18;;;;;;;108.22;32.88;;;;;;;15.84;66.72;101424.97;4970951;28;20098;-78
2023/10/04 05:05:45;;;;;;;103.40;33.90;;;;;;;15.83;67.24;101427.84;4971134;28;20031;-78
2023/10/04 05:08:11;;;;;;;161.52;37.92;;;;;;;15.88;66.80;101429.13;4970597;28;20039;-77
2023/10/04 05:10:40;;;;;;;185.07;39.15;;;;;;;15.94;66.72;101428.59;4970020;28;20486;-77
2023/10/04 05:13:13;;;;;;;135.85;36.08;;;;;;;15.98;66.85;101421.88;4969982;28;20027;-77
2023/10/04 05:15:39;;;;;;;147.10;37.85;;;;;;;16.02;66.71;101422.47;4969851;28;20086;-76
2023/10/04 05:18:05;;;;;;;124.88;36.65;;;;;;;15.87;66.12;101389.44;4971752;28;20043;-77
2023/10/04 05:20:32;;;;;;;147.43;36.03;;;;;;;16.10;66.46;101434.34;4970257;28;20027;-76
2023/10/04 05:22:59;;;;;;;150.70;41.75;;;;;;;16.21;65.96;101430.63;5012296;28;20047;-77
2023/10/04 05:25:27;;;;;;;152.63;42.22;;;;;;;16.24;65.16;101419.47;5051121;28;20761;-75
2023/10/04 05:27:53;;;;;;;141.48;39.35;;;;;;;16.40;65.09;101427.06;5050888;28;20116;-77
2023/10/04 05:30:19;;;;;;;162.02;44.00;;;;;;;16.47;64.77;101422.78;5050821;28;20025;-77
2023/10/04 05:32:46;;;;;;;161.40;41.95;;;;;;;16.36;64.40;101393.91;5051053;28;20457;-77
2023/10/04 05:35:12;;;;;;;161.60;37.65;;;;;;;16.68;64.09;101434.38;5050863;28;20513;-77
2023/10/04 05:37:41;;;;;;;170.93;41.03;;;;;;;16.76;64.13;101434.50;5050791;28;20033;-77
2023/10/04 05:40:23;;;;;;;132.75;37.85;;;;;;;16.84;64.05;101429.22;5050647;28;20083;-77
2023/10/04 05:42:49;;;;;;;132.15;35.92;;;;;;;16.94;63.61;101443.63;5050768;28;20049;-76
2023/10/04 05:45:14;;;;;;;167.98;37.80;;;;;;;16.79;63.90;101409.75;5050970;28;20035;-78
2023/10/04 05:47:40;;;;;;;151.50;36.13;;;;;;;17.04;64.27;101449.91;5050399;28;20075;-77
2023/10/04 05:50:13;;;;;;;165.27;37.35;;;;;;;17.12;64.01;101436.47;5050576;28;20021;-77
2023/10/04 05:52:39;;;;;;;140.43;36.10;;;;;;;17.19;64.15;101437.56;5050507;28;20112;-77
2023/10/04 05:55:08;;;;;;;119.90;33.90;;;;;;;17.32;63.89;101420.91;5050594;28;20037;-77
2023/10/04 05:57:37;;;;;;;115.88;33.92;;;;;;;17.27;63.04;101401.50;5050131;28;20167;-76
2023/10/04 06:00:26;;;;;;;104.00;32.42;;;;;;;17.35;62.62;101402.44;5050155;28;20020;-76
2023/10/04 06:03:00;;;;;;;86.32;31.05;;;;;;;17.17;61.73;101355.31;5050399;28;20033;-76
2023/10/04 06:05:27;;;;;;;85.53;30.77;;;;;;;17.77;60.93;101448.22;5050293;28;20029;-76
2023/10/04 06:07:55;;;;;;;65.40;29.38;;;;;;;17.82;60.83;101445.94;5049821;28;20511;-77
2023/10/04 06:10:23;;;;;;;78.03;29.90;;;;;;;17.94;60.27;101444.72;5050112;28;20489;-77
2023/10/04 06:12:51;;;;;;;77.88;28.50;;;;;;;17.89;60.06;101415.22;5049950;28;20027;-76
2023/10/04 06:15:17;;;;;;;79.60;30.92;;;;;;;18.12;59.57;101450.19;5049952;28;20036;-76
2023/10/04 06:17:44;;;;;;;78.75;30.02;;;;;;;18.17;59.60;101445.13;5049888;28;20123;-76
2023/10/04 06:20:28;;;;;;;72.82;31.08;;;;;;;18.30;59.54;101453.78;5031955;28;20056;-77
2023/10/04 06:22:56;;;;;;;91.55;32.53;;;;;;;18.37;59.72;101447.56;5050026;28;20048;-78
2023/10/04 06:25:23;;;;;;;84.57;33.97;;;;;;;18.48;59.39;101452.78;5049692;28;20100;-77
2023/10/04 06:27:50;;;;;;;81.30;31.65;;;;;;;18.60;59.07;101449.84;5049721;28;20035;-77
2023/10/04 06:30:20;;;;;;;80.63;32.30;;;;;;;18.63;58.66;101444.06;5049418;28;20116;-77
2023/10/04 06:32:49;;;;;;;79.43;30.00;;;;;;;18.79;58.44;101460.56;5050556;28;20091;-76
2023/10/04 06:35:16;;;;;;;73.57;29.17;;;;;;;18.89;57.55;101445.00;5049865;28;20089;-77
2023/10/04 06:37:41;;;;;;;80.70;28.42;;;;;;;18.95;57.39;101444.34;5049621;28;20520;-77
2023/10/04 06:40:15;;;;;;;72.25;24.25;;;;;;;19.02;57.12;101439.94;5049936;28;20045;-75
2023/10/04 06:42:43;;;;;;;71.63;24.08;;;;;;;18.92;56.92;101406.50;5049763;28;20037;-77
2023/10/04 06:45:09;;;;;;;82.28;25.52;;;;;;;19.23;56.55;101443.19;5049568;28;20112;-76
2023/10/04 06:47:35;;;;;;;57.83;21.70;;;;;;;19.23;56.01;101426.81;5049592;28;20036;-76
2023/10/04 06:50:02;;;;;;;70.78;25.95;;;;;;;19.48;55.58;101442.31;5049363;28;20369;-77
2023/10/04 06:52:27;;;;;;;64.93;22.30;;;;;;;19.51;55.09;101431.09;5049333;28;20101;-76
2023/10/04 06:54:53;;;;;;;71.13;23.77;;;;;;;19.51;54.81;101405.66;5007071;28;20558;-76
2023/10/04 06:57:20;;;;;;;64.88;22.75;;;;;;;19.78;54.13;101437.38;5007402;28;20096;-77
2023/10/04 06:59:45;;;;;;;66.30;21.77;;;;;;;19.86;53.24;101445.56;5007064;28;20065;-75
2023/10/04 07:02:11;;;;;;;60.95;20.23;;;;;;;20.01;52.56;101450.25;5011225;28;20519;-77
2023/10/04 07:04:36;;;;;;;98.63;23.00;;;;;;;20.02;52.19;101434.72;5011518;28;20022;-78
2023/10/04 07:07:02;;;;;;;43.72;16.33;;;;;;;20.10;50.67;101430.13;5011468;28;20564;-76
2023/10/04 07:09:30;;;;;;;55.38;20.73;;;;;;;20.18;50.94;101434.75;5012103;28;20112;-77
2023/10/04 07:11:55;;;;;;;49.65;15.85;;;;;;;20.34;50.35;101445.72;5011241;28;20049;-76
2023/10/04 07:14:21;;;;;;;40.70;14.52;;;;;;;20.45;49.98;101448.16;5011352;28;20026;-76
2023/10/04 07:16:46;;;;;;;43.05;14.38;;;;;;;20.53;49.11;101455.50;5010927;28;20478;-76
2023/10/04 07:19:12;;;;;;;49.45;16.13;;;;;;;20.55;49.26;101437.91;5010772;28;20583;-78
2023/10/04 07:21:37;;;;;;;39.90;13.93;;;;;;;20.68;48.60;101448.34;5011082;28;20042;-77
2023/10/04 07:24:03;;;;;;;45.72;14.80;;;;;;;20.73;48.57;101437.75;5010971;28;20044;-77
2023/10/04 07:26:34;;;;;;;36.40;14.48;;;;;;;20.81;47.59;101431.44;5011109;28;20113;-78
2023/10/04 07:29:00;;;;;;;37.33;13.38;;;;;;;20.82;46.38;101434.00;5010767;28;20121;-77
2023/10/04 07:31:25;;;;;;;36.00;15.23;;;;;;;20.91;46.57;101423.91;5015879;28;20541;-78
2023/10/04 07:33:51;;;;;;;36.60;14.05;;;;;;;20.96;45.80;101424.22;5053565;28;20478;-76
2023/10/04 07:36:16;;;;;;;33.40;14.23;;;;;;;20.87;45.85;101397.91;5053566;28;20025;-76
2023/10/04 07:38:42;;;;;;;31.90;14.98;;;;;;;21.07;45.81;101415.66;5058466;28;20040;-78
2023/10/04 07:41:08;;;;;;;51.75;14.30;;;;;;;21.01;45.12;101394.47;5075820;28;20037;-77
2023/10/04 07:43:35;;;;;;;49.45;14.93;;;;;;;21.20;44.36;101412.41;5077682;28;20040;-77
2023/10/04 07:46:01;;;;;;;36.90;14.50;;;;;;;21.32;43.31;101425.56;5077804;28;20017;-77
2023/10/04 07:48:27;;;;;;;44.55;15.98;;;;;;;21.32;43.37;101397.34;5067667;28;20118;-77
2023/10/04 07:50:52;;;;;;;46.47;14.70;;;;;;;21.53;43.36;101411.28;5054367;28;20036;-77
2023/10/04 07:53:21;;;;;;;51.97;14.95;;;;;;;21.58;43.19;101404.28;5053709;28;20028;-77
2023/10/04 07:55:49;;;;;;;67.13;20.52;;;;;;;21.75;42.97;101413.25;5053757;28;20107;-77
2023/10/04 07:58:14;;;;;;;120.05;20.83;;;;;;;21.79;43.25;101403.66;5053005;28;20119;-79
2023/10/04 08:00:41;;;;;;;51.58;14.40;;;;;;;21.76;43.24;101373.03;5034870;28;20112;-77
2023/10/04 08:03:07;;;;;;;35.92;13.45;;;;;;;22.07;42.56;101398.56;5052503;28;20110;-76
2023/10/04 08:05:33;;;;;;;47.47;15.18;;;;;;;22.16;43.26;101405.72;5052778;28;20528;-77
2023/10/04 08:08:00;;;;;;;47.55;18.30;;;;;;;22.12;44.28;101407.09;5051984;28;20032;-77
2023/10/04 08:10:29;;;;;;;53.50;17.25;;;;;;;22.02;45.36;101409.19;5052559;28;20024;-78
2023/10/04 08:13:00;;;;;;;47.83;14.23;;;;;;;22.05;46.87;101408.84;5051883;28;20122;-77
2023/10/04 08:15:30;;;;;;;37.28;12.52;;;;;;;22.03;47.86;101403.56;5052417;28;20025;-78
2023/10/04 08:17:58;;;;;;;31.90;11.65;;;;;;;22.11;48.81;101417.19;5052045;28;20029;-77
2023/10/04 08:20:26;;;;;;;58.33;15.02;;;;;;;22.10;50.06;101414.66;5051737;28;20047;-78
2023/10/04 08:22:51;;;;;;;42.67;12.25;;;;;;;22.01;50.51;101399.31;5052114;28;20049;-76
2023/10/04 08:25:21;;;;;;;58.08;13.18;;;;;;;22.01;51.43;101410.25;5051834;28;20064;-78
2023/10/04 08:27:50;;;;;;;30.52;11.88;;;;;;;22.00;51.22;101403.06;5051826;28;20040;-77
2023/10/04 08:30:18;;;;;;;40.60;12.02;;;;;;;22.06;51.45;101405.06;5017450;28;20044;-78
2023/10/04 08:32:47;;;;;;;26.05;11.90;;;;;;;22.13;51.55;101412.41;5051922;28;20033;-77
2023/10/04 08:35:33;;;;;;;51.75;13.05;;;;;;;22.28;51.70;101407.00;5033714;28;20031;-78
2023/10/04 08:38:03;;;;;;;63.30;15.05;;;;;;;22.41;51.37;101411.88;5051714;28;20048;-78
2023/10/04 08:40:29;;;;;;;49.67;15.27;;;;;;;22.48;50.44;101410.94;5051443;28;20029;-76
2023/10/04 08:42:56;;;;;;;28.83;13.13;;;;;;;22.49;50.83;101415.41;5051923;28;20053;-76
2023/10/04 08:45:24;;;;;;;39.63;12.60;;;;;;;22.36;51.03;101403.31;5051224;28;20112;-78
2023/10/04 08:47:51;;;;;;;28.25;12.30;;;;;;;22.31;50.87;101412.13;5051552;28;20032;-79
2023/10/04 08:50:40;;;;;;;38.70;12.43;;;;;;;22.33;51.22;101399.06;5051626;28;20514;-77
2023/10/04 08:53:27;;;;;;;40.63;11.63;;;;;;;22.42;51.73;101402.59;5051620;28;20029;-79
2023/10/04 08:56:12;;;;;;;49.00;12.57;;;;;;;22.40;52.18;101404.69;5051471;28;20497;-78
2023/10/04 08:58:40;;;;;;;56.35;14.45;;;;;;;22.47;51.71;101394.69;5051575;28;20068;-78
2023/10/04 09:01:10;;;;;;;38.97;12.80;;;;;;;22.61;52.59;101405.72;5051599;28;20089;-79
2023/10/04 09:03:39;;;;;;;36.08;12.23;;;;;;;22.45;53.57;101404.97;5051371;28;20428;-79
2023/10/04 09:06:07;;;;;;;29.95;11.48;;;;;;;22.21;54.81;101386.81;5051213;28;20120;-77
2023/10/04 09:08:33;;;;;;;30.13;11.30;;;;;;;22.27;55.31;101394.31;5050966;28;20033;-76
2023/10/04 09:10:59;;;;;;;34.72;13.10;;;;;;;22.22;55.67;101388.53;5051181;28;20736;-79
2023/10/04 09:13:25;;;;;;;38.30;13.23;;;;;;;22.43;55.56;101407.91;5051423;28;20029;-77
2023/10/04 09:15:51;;;;;;;30.63;11.50;;;;;;;22.47;55.54;101401.03;5051149;28;20501;-77
2023/10/04 09:18:26;;;;;;;27.15;11.77;;;;;;;22.52;54.88;101403.22;5051073;28;20032;-77
2023/10/04 09:20:52;;;;;;;44.78;13.45;;;;;;;22.59;55.14;101402.31;5050873;28;20024;-78
2023/10/04 09:23:22;;;;;;;138.82;22.33;;;;;;;22.70;55.35;101401.03;5050549;28;20087;-78
2023/10/04 09:25:48;;;;;;;30.08;11.38;;;;;;;22.80;55.70;101400.78;5051071;28;20031;-78
2023/10/04 09:28:14;;;;;;;24.63;11.15;;;;;;;22.73;56.16;101396.03;5033052;28;20100;-77
2023/10/04 09:30:39;;;;;;;39.75;12.10;;;;;;;22.74;56.82;101400.50;5050667;28;20155;-77
2023/10/04 09:33:23;;;;;;;26.88;10.15;;;;;;;22.79;57.05;101388.94;4999035;28;20098;-78
2023/10/04 09:35:49;;;;;;;35.63;12.68;;;;;;;22.96;56.46;101403.38;5050685;28;20107;-77
2023/10/04 09:38:25;;;;;;;47.35;12.52;;;;;;;22.91;56.07;101403.06;5050539;28;20116;-78
2023/10/04 09:40:52;;;;;;;31.13;13.20;;;;;;;22.78;56.27;101388.09;5050584;28;20044;-77
2023/10/04 09:43:19;;;;;;;27.27;10.88;;;;;;;22.94;56.24;101403.56;5050140;28;20052;-78
2023/10/04 09:45:59;;;;;;;30.92;12.43;;;;;;;22.94;55.98;101398.06;5050387;28;20063;-78
2023/10/04 09:48:33;;;;;;;29.92;11.65;;;;;;;23.01;56.72;101387.19;5050451;28;20053;-78
2023/10/04 09:51:05;;;;;;;28.80;10.82;;;;;;;22.91;56.61;101392.09;5050377;28;20021;-79
2023/10/04 09:53:30;;;;;;;32.03;12.55;;;;;;;23.10;56.24;101389.69;5050796;28;20025;-77
2023/10/04 09:56:03;;;;;;;32.17;11.63;;;;;;;22.97;55.44;101363.91;5050649;28;20044;-78
2023/10/04 09:58:31;;;;;;;38.85;12.88;;;;;;;23.36;54.03;101389.22;5050482;28;20032;-78
2023/10/04 10:01:01;;;;;;;36.67;13.32;;;;;;;23.48;53.30;101382.25;5050687;28;20028;-78
2023/10/04 10:03:31;;;;;;;25.73;11.38;;;;;;;23.33;53.23;101371.22;5050584;28;20136;-77
2023/10/04 10:05:58;;;;;;;34.80;13.13;;;;;;;23.49;53.22;101380.31;5051125;28;20500;-79
2023/10/04 10:08:31;;;;;;;31.85;13.20;;;;;;;23.56;52.43;101382.13;5051547;28;20025;-77
2023/10/04 10:11:00;;;;;;;43.65;12.55;;;;;;;23.49;53.39;101385.81;5057172;28;20045;-77
2023/10/04 10:13:26;;;;;;;36.83;13.10;;;;;;;23.57;53.70;101356.38;5039639;28;20116;-77
2023/10/04 10:15:53;;;;;;;35.30;12.38;;;;;;;23.85;52.59;101375.75;5057509;28;20017;-76
2023/10/04 10:18:20;;;;;;;27.80;12.02;;;;;;;23.78;52.11;101358.34;5056330;28;20056;-78
2023/10/04 10:20:46;;;;;;;32.50;11.57;;;;;;;23.68;53.65;101358.63;5054096;28;20021;-76
2023/10/04 10:23:15;;;;;;;40.90;12.77;;;;;;;23.64;53.78;101367.44;5053833;28;20029;-77
2023/10/04 10:26:18;;;;;;;36.67;13.15;;;;;;;23.75;54.15;101359.56;5049823;28;20032;-77
2023/10/04 10:28:47;;;;;;;43.15;13.40;;;;;;;23.79;54.23;101363.63;5049816;28;20057;-77
2023/10/04 10:31:20;;;;;;;52.60;13.02;;;;;;;23.66;53.31;101344.25;5049445;28;20091;-79
2023/10/04 10:33:47;;;;;;;26.38;11.93;;;;;;;23.80;53.77;101373.56;5049301;28;20548;-78
2023/10/04 10:36:24;;;;;;;50.58;13.55;;;;;;;23.87;52.91;101370.06;5049308;28;20122;-78
2023/10/04 10:38:54;;;;;;;43.15;13.68;;;;;;;23.94;52.50;101368.25;5049499;28;20555;-78
2023/10/04 10:41:32;;;;;;;40.33;13.77;;;;;;;24.09;52.39;101356.16;5049445;28;20057;-77
2023/10/04 10:44:30;;;;;;;39.72;13.30;;;;;;;24.24;51.26;101342.38;5031843;28;20055;-78
2023/10/04 10:47:12;;;;;;;38.13;11.68;;;;;;;24.18;51.21;101343.16;5049508;28;20036;-78
2023/10/04 10:49:39;;;;;;;31.98;12.18;;;;;;;24.11;49.82;101309.25;5049332;28;20497;-77
2023/10/04 10:52:10;;;;;;;28.05;12.05;;;;;;;24.21;49.00;101331.78;5049361;28;20086;-78
2023/10/04 10:54:36;;;;;;;37.97;13.57;;;;;;;24.20;49.22;101346.56;5049391;28;20553;-78
2023/10/04 10:57:05;;;;;;;34.75;12.85;;;;;;;24.04;50.13;101341.28;5049252;28;20033;-77
2023/10/04 10:59:32;;;;;;;28.33;12.68;;;;;;;23.99;50.16;101336.38;5049220;28;20430;-78
2023/10/04 11:01:59;;;;;;;74.32;22.58;;;;;;;24.04;50.02;101344.88;5049530;28;20109;-79
2023/10/04 11:04:24;;;;;;;40.47;12.57;;;;;;;24.12;49.27;101343.94;4997558;28;20045;-77
2023/10/04 11:06:51;;;;;;;34.78;12.32;;;;;;;24.28;48.20;101338.16;5049331;28;20021;-78
2023/10/04 11:09:17;;;;;;;34.20;13.05;;;;;;;24.20;47.31;101335.56;5049134;28;20032;-79
2023/10/04 11:11:42;;;;;;;50.63;15.50;;;;;;;24.27;48.07;101328.25;5049389;28;20036;-78
2023/10/04 11:14:09;;;;;;;31.65;12.00;;;;;;;24.40;46.67;101336.63;5049207;28;20028;-78
2023/10/04 11:16:34;;;;;;;34.78;12.30;;;;;;;24.41;45.90;101310.81;5049030;28;20025;-77
2023/10/04 11:19:03;;;;;;;43.22;13.55;;;;;;;24.51;46.21;101322.31;5049298;28;20028;-77
2023/10/04 11:21:29;;;;;;;36.45;12.27;;;;;;;24.40;47.00;101327.50;4997167;28;20783;-80
2023/10/04 11:23:55;;;;;;;30.63;12.45;;;;;;;24.29;47.07;101339.88;5048951;28;20097;-77